KPPF/PPF METAR and TAF weather

Enter ICAO airport designator
Station Type Date Time Source
KPPF METAR 2022/05/24 11:52 UTC NOAA

KPPF 241152Z AUTO VRB04KT 5SM -RA BR BKN005 OVC090 14/14 A2994 RMK AO2 SLP132 P0004 60053 70081 T01440144 10144 20139 58019


Station Type Date Time Source
KPPF Decoded METAR 2022/05/24 11:52 UTC NOAA

PARSONS TRI-CITY AIRPORT, KS, United States (KPPF) 37-20N 95-30W 274M
May 24, 2022 - 07:52 AM EDT / 2022.05.24 1152 UTC
Wind: Variable at 5 MPH (4 KT):0
Visibility: 5 mile(s):0
Sky conditions: overcast
Weather: light rain; mist
Precipitation last hour: 0.04 inches
Temperature: 57.9 F (14.4 C)
Dew Point: 57.9 F (14.4 C)
Relative Humidity: 100%
Pressure (altimeter): 29.94 in. Hg (1013 hPa)
Pressure tendency: 0.06 inches (1.9 hPa) lower than three hours ago
ob: KPPF 241152Z AUTO VRB04KT 5SM -RA BR BKN005 OVC090 14/14 A2994 RMK AO2 SLP132 P0004 60053 70081 T01440144 10144 20139 58019
cycle: 12

Station Type Date Time Source
KPPF TAF UTC NOAA

Error!

Example: see airport list